White Pine, MI (49971)

3:44 AM EST on February 24, 2017 (GMT -0500)
Big Iron River - White Pine, MI. | | Change Station
Active Advisory: Winter Weather Advisory

Elev 940 ft 46.76 °N, 89.59 °W | Updated 19 seconds ago

Overcast
Overcast
26.6 °F
Feels Like 18 °F
N
9.2
Wind Variable Wind from ENE

Today
High -- | Low -- °F
--% Chance of Precip.
Yesterday
High -- | Low -- °F
Precip. -- in
Pressure 29.93 in
Visibility 10.0 miles
Clouds Mostly Cloudy 2400 ft
Windchill 18 °F
Dew Point 26 °F
Humidity 97%
Rainfall 0.00 in
Snow Depth Not available.
7:46 AM 6:37 PM
Waning Crescent, 6% visible
SPECI KIWD 240807Z AUTO 04004KT 10SM BKN024 M03/M07 A2993 RMK AO2 FZRANO
Pressure 29.93 in
Visibility 10.0 miles
Clouds Mostly Cloudy 2400 ft
Windchill 18 °F
Dew Point 26 °F
Humidity 97%
Rainfall 0.00 in
Snow Depth Not available.
7:46 AM 6:37 PM
Waning Crescent, 6% visible
SPECI KIWD 240807Z AUTO 04004KT 10SM BKN024 M03/M07 A2993 RMK AO2 FZRANO

Get Your Daily Forecast Email!

Thanks for signing up!

Be on the lookout for a verification email in your inbox.

You'll start receiving the daily forecast at 8 AM.

×

10-Day Weather Forecast

Almanac

Astronomy

Feb. 24, 2017 Rise Set
Actual Time
Civil Twilight
Nautical Twilight
Astronomical Twilight
Moon
Length of Visible Light
Length of Day
Tomorrow will be .
, % of the Moon is Illuminated

Today's Extremes

State Highs State Lows

Community

WunderPhotos

Upload Photos

1,962,540 photos uploaded!

WunderBlog® & News

Nearby

Air Quality

  Air Quality AQ Index Pollutant
Not available.

Snow Depth

Station Depth Elevation

Earthquake Activity

City Distance Mag. Time & Date
Minimum magnitude displayed is 2.5.

Coastal Water Temperatures

Place Temperature

Stations

Nearby Weather Stations

Station Location Temp. Windchill Dew Point Humidity Wind Precip. Elev Updated Type
                   

Watches & Warnings

Winter Weather Advisory
Issued: 9:07 PM CST Feb. 23, 2017 – National Weather Service

... Winter Weather Advisory remains in effect from 7 am EST /6 am
CST/ Friday to 7 am EST /6 am CST/ Saturday...

Hazardous weather...

* expect snow to develop between 8 am and 11 am on Friday and
   continue through Friday night.

* The heaviest snowfall rates are expected in the late morning
   and afternoon hours on Friday and then across the higher
   terrain of north central Upper Michigan on Friday night.

* Total snow accumulations of 8 to 12 inches are possible
   through Saturday morning. Expect the greatest accumulations
   across the higher terrain in the northeast wind snow belts.

Impacts...

* the snow will make roads slick and will likely impact the
   evening commute on Friday.

Precautionary/preparedness actions...

* a Winter Weather Advisory means that periods of snow will
   cause travel difficulties. Be prepared for slippery roads and
   limited visibilities, and use caution while driving.

* Prepare, plan, and stay informed. Visit www.Weather.Gov/MQT